createdAt,value
2023-05-18T00:01:50.055Z,0
2023-05-18T00:11:50.117Z,0
2023-05-18T00:21:49.962Z,0
2023-05-18T00:31:50.156Z,0
2023-05-18T00:41:50.012Z,0
2023-05-18T00:51:50.105Z,0
2023-05-18T01:01:49.951Z,0
2023-05-18T01:11:50.120Z,0
2023-05-18T01:21:50.456Z,0
2023-05-18T01:31:50.980Z,0
2023-05-18T01:41:50.255Z,0
2023-05-18T01:51:50.069Z,0
2023-05-18T02:01:50.037Z,0
2023-05-18T02:11:50.059Z,0
2023-05-18T02:21:50.046Z,0
2023-05-18T02:31:51.332Z,0
2023-05-18T02:41:50.104Z,0
2023-05-18T02:51:50.102Z,0
2023-05-18T03:01:50.034Z,0
2023-05-18T03:11:50.336Z,0
2023-05-18T03:21:50.362Z,0
2023-05-18T03:31:50.623Z,0
2023-05-18T03:41:49.985Z,0
2023-05-18T03:51:50.042Z,0
2023-05-18T04:01:50.158Z,0
2023-05-18T04:11:50.012Z,0
2023-05-18T04:21:49.996Z,0
2023-05-18T04:31:50.172Z,0
2023-05-18T04:41:50.202Z,0
2023-05-18T04:51:50.145Z,0
2023-05-18T05:01:50.324Z,0
2023-05-18T05:11:50.419Z,0
2023-05-18T05:21:50.319Z,0
2023-05-18T05:31:50.190Z,0
2023-05-18T05:41:50.155Z,0
2023-05-18T05:51:50.147Z,0
2023-05-18T06:01:50.108Z,0
2023-05-18T06:11:50.156Z,0
2023-05-18T06:21:50.197Z,0
2023-05-18T06:31:51.475Z,0
2023-05-18T06:41:52.499Z,0
2023-05-18T06:51:50.129Z,0
2023-05-18T07:01:50.266Z,0
2023-05-18T07:11:50.098Z,0
2023-05-18T07:21:50.108Z,0
2023-05-18T07:31:50.146Z,0
2023-05-18T07:41:50.688Z,0
2023-05-18T07:51:50.082Z,0
2023-05-18T08:01:50.403Z,0
2023-05-18T08:11:50.409Z,0
2023-05-18T08:21:50.875Z,0
2023-05-18T08:31:50.371Z,0
2023-05-18T08:41:50.264Z,0
2023-05-18T08:51:50.190Z,0
2023-05-18T09:01:50.181Z,0
2023-05-18T09:11:50.214Z,0
2023-05-18T09:21:50.105Z,0
2023-05-18T09:31:50.265Z,0
2023-05-18T09:41:50.690Z,0
2023-05-18T09:51:50.277Z,0
2023-05-18T10:01:50.323Z,0
2023-05-18T10:11:50.307Z,0
2023-05-18T10:21:50.172Z,0
2023-05-18T10:31:50.260Z,0
2023-05-18T10:41:50.188Z,0
2023-05-18T10:51:50.120Z,0
2023-05-18T11:01:50.278Z,0
2023-05-18T11:11:50.510Z,0
2023-05-18T11:21:50.455Z,0
2023-05-18T11:31:50.276Z,0
2023-05-18T11:41:50.404Z,0
2023-05-18T11:51:50.396Z,0
2023-05-18T12:01:50.339Z,0
2023-05-18T12:11:50.375Z,0
2023-05-18T12:21:50.201Z,0
2023-05-18T12:31:50.668Z,0
2023-05-18T12:41:50.500Z,0
2023-05-18T12:51:50.324Z,0
2023-05-18T13:01:50.299Z,0
2023-05-18T13:12:03.663Z,0
2023-05-18T13:21:50.409Z,0
2023-05-18T13:31:50.365Z,0
2023-05-18T13:41:50.741Z,0
2023-05-18T13:51:50.533Z,0
2023-05-18T14:01:50.476Z,0
2023-05-18T14:11:52.922Z,0
2023-05-18T14:21:50.209Z,0
2023-05-18T14:31:50.299Z,0
2023-05-18T14:41:50.242Z,0
2023-05-18T14:51:50.182Z,0
2023-05-18T15:01:50.584Z,0
2023-05-18T15:11:50.627Z,0
2023-05-18T15:21:50.550Z,0
2023-05-18T15:31:50.427Z,0.0002
2023-05-18T15:41:50.490Z,0.0003
2023-05-18T15:51:50.490Z,0.0004
2023-05-18T16:01:50.604Z,0.0006
2023-05-18T16:11:50.485Z,0.0007
2023-05-18T16:21:50.343Z,0.0008
2023-05-18T16:31:50.600Z,0.0010
2023-05-18T16:41:50.550Z,0.0011
2023-05-18T16:51:50.499Z,0.0013
2023-05-18T17:01:50.454Z,0.0014
2023-05-18T17:11:50.654Z,0.0015
2023-05-18T17:21:50.433Z,0.0017
2023-05-18T17:31:50.462Z,0.0018
2023-05-18T17:41:50.555Z,0.0020
2023-05-18T17:51:50.586Z,0.0021
2023-05-18T18:01:50.333Z,0.0022
2023-05-18T18:11:50.791Z,0.0024
2023-05-18T18:21:50.478Z,0.0025
2023-05-18T18:31:50.303Z,0.0027
2023-05-18T18:41:51.312Z,0.0028
2023-05-18T18:51:50.400Z,0.0029
2023-05-18T19:01:51.332Z,0.0031
2023-05-18T19:11:50.880Z,0.0032
2023-05-18T19:21:50.749Z,0.0033
2023-05-18T19:31:50.632Z,0.0035
2023-05-18T19:41:50.575Z,0.0036
2023-05-18T19:51:50.571Z,0.0038
2023-05-18T20:01:50.631Z,0.0039
2023-05-18T20:11:50.413Z,0.0040
2023-05-18T20:21:51.078Z,0.0042
2023-05-18T20:31:51.428Z,0.0043
2023-05-18T20:41:50.581Z,0.0045
2023-05-18T20:51:50.423Z,0.0046
2023-05-18T21:01:50.790Z,0.0047
2023-05-18T21:11:50.489Z,0.0049
2023-05-18T21:21:50.470Z,0.0050
2023-05-18T21:31:50.703Z,0.0052
2023-05-18T21:41:50.685Z,0.0053
2023-05-18T21:51:50.548Z,0.0054
2023-05-18T22:01:50.479Z,0
2023-05-18T22:11:51.591Z,0
2023-05-18T22:21:50.590Z,0
2023-05-18T22:31:50.746Z,0
2023-05-18T22:41:50.604Z,0
2023-05-18T22:51:51.711Z,0
2023-05-18T23:01:51.589Z,0
2023-05-18T23:11:52.113Z,0
2023-05-18T23:21:51.215Z,0
2023-05-18T23:31:52.438Z,0
2023-05-18T23:41:52.833Z,0
2023-05-18T23:51:51.551Z,0
